createdAt,value
2022-09-23T00:00:06.945Z,101535.00
2022-09-23T00:02:37.143Z,101537.00
2022-09-23T00:05:06.600Z,101533.00
2022-09-23T00:07:35.285Z,101530.00
2022-09-23T00:10:04.043Z,101530.00
2022-09-23T00:12:32.776Z,101529.00
2022-09-23T00:15:02.184Z,101527.00
2022-09-23T00:17:33.383Z,101521.00
2022-09-23T00:20:03.892Z,101523.00
2022-09-23T00:22:32.737Z,101528.00
2022-09-23T00:25:01.413Z,101529.00
2022-09-23T00:27:33.253Z,101527.00
2022-09-23T00:30:02.489Z,101518.00
2022-09-23T00:32:34.449Z,101516.00
2022-09-23T00:35:05.449Z,101519.00
2022-09-23T00:37:34.273Z,101514.00
2022-09-23T00:40:04.051Z,101513.00
2022-09-23T00:42:32.959Z,101518.00
2022-09-23T00:45:03.136Z,101507.00
2022-09-23T00:47:36.908Z,101508.00
2022-09-23T00:50:14.973Z,101507.00
2022-09-23T00:52:44.666Z,101510.00
2022-09-23T00:55:20.795Z,101512.00
2022-09-23T00:57:49.685Z,101505.00
2022-09-23T01:00:18.904Z,101506.00
2022-09-23T01:02:48.104Z,101508.00
2022-09-23T01:05:18.711Z,101509.00
2022-09-23T01:07:48.448Z,101502.00
2022-09-23T01:10:19.459Z,101500.00
2022-09-23T01:13:16.059Z,101499.00
2022-09-23T01:15:53.701Z,101505.00
2022-09-23T01:18:38.360Z,101500.00
2022-09-23T01:21:24.263Z,101494.00
2022-09-23T01:24:48.234Z,101499.00
2022-09-23T01:28:11.898Z,101492.00
2022-09-23T01:30:49.732Z,101493.00
2022-09-23T01:33:26.514Z,101502.00
2022-09-23T01:36:20.417Z,101507.00
2022-09-23T01:38:59.741Z,101506.00
2022-09-23T01:41:56.512Z,101501.00
2022-09-23T01:44:35.677Z,101495.00
2022-09-23T01:47:12.403Z,101494.00
2022-09-23T01:49:51.914Z,101494.00
2022-09-23T01:52:28.247Z,101494.00
2022-09-23T01:55:08.814Z,101489.00
2022-09-23T01:57:44.662Z,101498.00
2022-09-23T02:00:17.652Z,101490.00
2022-09-23T02:02:54.044Z,101491.00
2022-09-23T02:05:29.759Z,101494.00
2022-09-23T02:08:04.581Z,101493.00
2022-09-23T02:10:44.250Z,101486.00
2022-09-23T02:13:20.715Z,101490.00
2022-09-23T02:15:56.238Z,101484.00
2022-09-23T02:18:31.207Z,101490.00
2022-09-23T02:21:07.652Z,101492.00
2022-09-23T02:23:45.173Z,101492.00
2022-09-23T02:26:22.170Z,101487.00
2022-09-23T02:29:01.606Z,101485.00
2022-09-23T02:31:40.299Z,101485.00
2022-09-23T02:34:23.315Z,101491.00
2022-09-23T02:37:08.220Z,101480.00
2022-09-23T02:39:55.666Z,101480.00
2022-09-23T02:42:34.806Z,101482.00
2022-09-23T02:45:03.669Z,101481.00
2022-09-23T02:47:37.067Z,101484.00
2022-09-23T02:50:09.422Z,101477.00
2022-09-23T02:52:39.215Z,101480.00
2022-09-23T02:55:13.101Z,101472.00
2022-09-23T02:57:42.104Z,101480.00
2022-09-23T03:00:13.236Z,101484.00
2022-09-23T03:03:02.379Z,101483.00
2022-09-23T03:05:41.558Z,101475.00
2022-09-23T03:08:36.870Z,101479.00
2022-09-23T03:11:10.616Z,101474.00
2022-09-23T03:14:05.194Z,101480.00
2022-09-23T03:16:43.930Z,101479.00
2022-09-23T03:19:28.237Z,101480.00
2022-09-23T03:22:07.156Z,101474.00
2022-09-23T03:24:39.588Z,101483.00
2022-09-23T03:27:16.257Z,101476.00
2022-09-23T03:29:49.283Z,101473.00
2022-09-23T03:32:24.281Z,101471.00
2022-09-23T03:34:56.769Z,101473.00
2022-09-23T03:37:33.318Z,101470.00
2022-09-23T03:40:10.991Z,101470.00
2022-09-23T03:42:42.111Z,101477.00
2022-09-23T03:45:18.378Z,101469.00
2022-09-23T03:47:47.921Z,101474.00
2022-09-23T03:50:17.797Z,101472.00
2022-09-23T03:52:49.705Z,101479.00
2022-09-23T03:55:19.710Z,101480.00
2022-09-23T03:57:49.009Z,101470.00
2022-09-23T04:00:18.144Z,101479.00
2022-09-23T04:02:47.060Z,101473.00
2022-09-23T04:05:15.752Z,101472.00
2022-09-23T04:07:44.405Z,101481.00
2022-09-23T04:10:14.444Z,101474.00
2022-09-23T04:12:43.132Z,101474.00
2022-09-23T04:15:12.753Z,101469.00
2022-09-23T04:17:41.960Z,101474.00
2022-09-23T04:20:11.316Z,101472.00
2022-09-23T04:22:40.265Z,101481.00
2022-09-23T04:25:10.561Z,101472.00
2022-09-23T04:27:40.853Z,101475.00
2022-09-23T04:30:11.200Z,101468.00
2022-09-23T04:32:40.276Z,101471.00
2022-09-23T04:35:09.670Z,101475.00
2022-09-23T04:37:38.323Z,101465.00
2022-09-23T04:40:09.071Z,101470.00
2022-09-23T04:42:37.919Z,101469.00
2022-09-23T04:45:09.772Z,101469.00
2022-09-23T04:47:59.481Z,101476.00
2022-09-23T04:50:28.370Z,101480.00
2022-09-23T04:52:57.322Z,101477.00
2022-09-23T04:55:26.316Z,101476.00
2022-09-23T04:57:57.225Z,101480.00
2022-09-23T05:00:28.797Z,101470.00
2022-09-23T05:02:57.957Z,101467.00
2022-09-23T05:05:28.402Z,101465.00
2022-09-23T05:07:58.072Z,101465.00
2022-09-23T05:10:26.764Z,101464.00
2022-09-23T05:13:00.409Z,101470.00
2022-09-23T05:15:32.888Z,101479.00
2022-09-23T05:18:02.741Z,101471.00
2022-09-23T05:20:31.569Z,101475.00
2022-09-23T05:23:01.210Z,101479.00
2022-09-23T05:25:30.194Z,101475.00
2022-09-23T05:27:58.974Z,101469.00
2022-09-23T05:30:35.019Z,101477.00
2022-09-23T05:33:13.650Z,101474.00
2022-09-23T05:35:48.805Z,101478.00
2022-09-23T05:38:17.825Z,101485.00
2022-09-23T05:40:46.653Z,101484.00
2022-09-23T05:43:15.797Z,101486.00
2022-09-23T05:45:46.427Z,101482.00
2022-09-23T05:48:15.181Z,101484.00
2022-09-23T05:50:51.936Z,101493.00
2022-09-23T05:53:21.447Z,101484.00
2022-09-23T05:55:51.527Z,101483.00
2022-09-23T05:58:20.407Z,101486.00
2022-09-23T06:00:51.503Z,101492.00
2022-09-23T06:03:26.995Z,101490.00
2022-09-23T06:05:57.236Z,101493.00
2022-09-23T06:08:26.191Z,101491.00
2022-09-23T06:10:55.078Z,101492.00
2022-09-23T06:13:24.000Z,101502.00
2022-09-23T06:15:59.478Z,101496.00
2022-09-23T06:18:28.361Z,101500.00
2022-09-23T06:20:57.380Z,101494.00
2022-09-23T06:23:26.778Z,101496.00
2022-09-23T06:25:55.549Z,101502.00
2022-09-23T06:28:27.262Z,101496.00
2022-09-23T06:31:00.941Z,101495.00
2022-09-23T06:33:36.683Z,101499.00
2022-09-23T06:36:08.856Z,101504.00
2022-09-23T06:38:41.467Z,101505.00
2022-09-23T06:41:10.537Z,101497.00
2022-09-23T06:43:39.608Z,101499.00
2022-09-23T06:46:17.401Z,101505.00
2022-09-23T06:48:48.853Z,101503.00
2022-09-23T06:51:21.877Z,101500.00
2022-09-23T06:53:51.038Z,101500.00
2022-09-23T06:56:22.223Z,101498.00
2022-09-23T06:58:53.596Z,101497.00
2022-09-23T07:01:24.368Z,101504.00
2022-09-23T07:03:54.409Z,101497.00
2022-09-23T07:06:25.298Z,101494.00
2022-09-23T07:08:55.548Z,101500.00
2022-09-23T07:11:24.360Z,101500.00
2022-09-23T07:13:53.214Z,101507.00
2022-09-23T07:16:23.613Z,101506.00
2022-09-23T07:18:53.563Z,101502.00
2022-09-23T07:21:22.366Z,101508.00
2022-09-23T07:23:57.833Z,101508.00
2022-09-23T07:26:27.935Z,101505.00
2022-09-23T07:29:04.602Z,101502.00
2022-09-23T07:31:39.666Z,101501.00
2022-09-23T07:34:11.840Z,101506.00
2022-09-23T07:36:41.870Z,101509.00
2022-09-23T07:39:13.398Z,101500.00
2022-09-23T07:41:44.705Z,101497.00
2022-09-23T07:44:13.787Z,101500.00
2022-09-23T07:46:43.891Z,101498.00
2022-09-23T07:49:13.693Z,101503.00
2022-09-23T07:51:46.269Z,101501.00
2022-09-23T07:54:18.436Z,101504.00
2022-09-23T07:56:48.275Z,101501.00
2022-09-23T07:59:19.565Z,101506.00
2022-09-23T08:01:54.198Z,101499.00
2022-09-23T08:04:27.850Z,101496.00
2022-09-23T08:07:00.797Z,101499.00
2022-09-23T08:09:33.061Z,101494.00
2022-09-23T08:12:02.759Z,101497.00
2022-09-23T08:14:31.531Z,101498.00
2022-09-23T08:17:01.541Z,101497.00
2022-09-23T08:19:30.332Z,101501.00
2022-09-23T08:21:59.231Z,101504.00
2022-09-23T08:24:30.305Z,101503.00
2022-09-23T08:26:59.847Z,101503.00
2022-09-23T08:29:28.477Z,101504.00
2022-09-23T08:31:57.388Z,101492.00
2022-09-23T08:34:29.650Z,101496.00
2022-09-23T08:36:58.442Z,101499.00
2022-09-23T08:39:27.197Z,101496.00
2022-09-23T08:42:10.536Z,101494.00
2022-09-23T08:44:50.572Z,101496.00
2022-09-23T08:47:26.176Z,101488.00
2022-09-23T08:50:06.972Z,101491.00
2022-09-23T08:52:49.578Z,101492.00
2022-09-23T08:55:20.171Z,101487.00
2022-09-23T08:58:26.528Z,101486.00
2022-09-23T09:01:10.611Z,101489.00
2022-09-23T09:03:47.530Z,101486.00
2022-09-23T09:06:23.991Z,101488.00
2022-09-23T09:09:00.998Z,101481.00
2022-09-23T09:11:38.169Z,101486.00
2022-09-23T09:14:23.673Z,101486.00
2022-09-23T09:17:02.953Z,101481.00
2022-09-23T09:20:09.001Z,101481.00
2022-09-23T09:22:57.862Z,101482.00
2022-09-23T09:25:44.379Z,101488.00
2022-09-23T09:28:21.329Z,101480.00
2022-09-23T09:30:57.393Z,101485.00
2022-09-23T09:33:33.222Z,101477.00
2022-09-23T09:36:16.049Z,101474.00
2022-09-23T09:38:46.414Z,101474.00
2022-09-23T09:41:21.488Z,101476.00
2022-09-23T09:43:57.718Z,101466.00
2022-09-23T09:46:54.694Z,101471.00
2022-09-23T09:49:40.117Z,101465.00
2022-09-23T09:52:23.757Z,101462.00
2022-09-23T09:55:00.545Z,101469.00
2022-09-23T09:57:36.071Z,101460.00
2022-09-23T10:00:44.427Z,101464.00
2022-09-23T10:03:31.496Z,101463.00
2022-09-23T10:06:00.245Z,101466.00
2022-09-23T10:08:33.650Z,101463.00
2022-09-23T10:11:07.097Z,101463.00
2022-09-23T10:13:38.232Z,101460.00
2022-09-23T10:16:07.459Z,101465.00
2022-09-23T10:18:40.271Z,101472.00
2022-09-23T10:21:12.286Z,101472.00
2022-09-23T10:23:45.709Z,101464.00
2022-09-23T10:26:18.600Z,101468.00
2022-09-23T10:28:52.314Z,101466.00
2022-09-23T10:31:26.878Z,101457.00
2022-09-23T10:33:59.866Z,101456.00
2022-09-23T10:36:30.264Z,101448.00
2022-09-23T10:39:15.252Z,101451.00
2022-09-23T10:42:31.168Z,101453.00
2022-09-23T10:45:37.549Z,101455.00
2022-09-23T10:48:27.232Z,101451.00
2022-09-23T10:50:59.832Z,101450.00
2022-09-23T10:53:47.587Z,101451.00
2022-09-23T10:56:31.469Z,101444.00
2022-09-23T10:59:29.259Z,101445.00
2022-09-23T11:02:15.087Z,101441.00
2022-09-23T11:05:17.224Z,101447.00
2022-09-23T11:07:59.660Z,101450.00
2022-09-23T11:11:03.128Z,101453.00
2022-09-23T11:14:04.317Z,101456.00
2022-09-23T11:16:52.794Z,101450.00
2022-09-23T11:20:32.571Z,101451.00
2022-09-23T11:23:39.066Z,101465.00
2022-09-23T11:26:32.921Z,101458.00
2022-09-23T11:29:42.538Z,101457.00
2022-09-23T11:32:39.703Z,101446.00
2022-09-23T11:35:20.595Z,101447.00
2022-09-23T11:37:55.034Z,101449.00
2022-09-23T11:40:32.261Z,101458.00
2022-09-23T11:43:07.261Z,101455.00
2022-09-23T11:45:45.153Z,101454.00
2022-09-23T11:48:23.084Z,101458.00
2022-09-23T11:50:59.650Z,101453.00
2022-09-23T11:53:43.655Z,101453.00
2022-09-23T11:56:33.973Z,101456.00
2022-09-23T11:59:14.160Z,101461.00
2022-09-23T12:01:49.729Z,101445.00
2022-09-23T12:04:55.295Z,101441.00
2022-09-23T12:07:35.869Z,101444.00
2022-09-23T12:10:07.997Z,101444.00
2022-09-23T12:12:47.816Z,101442.00
2022-09-23T12:15:32.939Z,101446.00
2022-09-23T12:18:23.431Z,101446.00
2022-09-23T12:21:49.797Z,101443.00
2022-09-23T12:24:52.477Z,101447.00
2022-09-23T12:27:37.452Z,101445.00
2022-09-23T12:30:16.981Z,101443.00
2022-09-23T12:32:46.533Z,101446.00
2022-09-23T12:35:33.309Z,101444.00
2022-09-23T12:38:04.957Z,101448.00
2022-09-23T12:40:40.924Z,101439.00
2022-09-23T12:43:19.161Z,101448.00
2022-09-23T12:45:48.629Z,101440.00
2022-09-23T12:49:01.292Z,101446.00
2022-09-23T12:51:34.200Z,101450.00
2022-09-23T12:54:26.096Z,101446.00
2022-09-23T12:57:06.638Z,101443.00
2022-09-23T13:00:14.716Z,101443.00
2022-09-23T13:03:09.148Z,101442.00
2022-09-23T13:06:04.767Z,101439.00
2022-09-23T13:08:38.681Z,101443.00
2022-09-23T13:11:20.589Z,101437.00
2022-09-23T13:13:51.793Z,101437.00
2022-09-23T13:16:27.537Z,101440.00
2022-09-23T13:18:58.301Z,101432.00
2022-09-23T13:22:09.255Z,101430.00
2022-09-23T13:24:45.290Z,101439.00
2022-09-23T13:27:32.601Z,101434.00
2022-09-23T13:30:07.777Z,101433.00
2022-09-23T13:32:49.798Z,101442.00
2022-09-23T13:35:27.657Z,101432.00
2022-09-23T13:37:56.447Z,101438.00
2022-09-23T13:40:28.221Z,101434.00
2022-09-23T13:43:02.469Z,101433.00
2022-09-23T13:45:33.911Z,101429.00
2022-09-23T13:48:08.103Z,101433.00
2022-09-23T13:50:41.718Z,101432.00
2022-09-23T13:53:14.404Z,101439.00
2022-09-23T13:55:43.126Z,101440.00
2022-09-23T13:58:22.215Z,101434.00
2022-09-23T14:00:52.072Z,101429.00
2022-09-23T14:03:31.274Z,101424.00
2022-09-23T14:06:10.365Z,101424.00
2022-09-23T14:08:43.597Z,101423.00
2022-09-23T14:11:17.672Z,101429.00
2022-09-23T14:13:55.058Z,101423.00
2022-09-23T14:16:28.344Z,101426.00
2022-09-23T14:19:02.000Z,101424.00
2022-09-23T14:21:38.637Z,101425.00
2022-09-23T14:24:20.465Z,101422.00
2022-09-23T14:26:55.902Z,101417.00
2022-09-23T14:29:31.685Z,101428.00
2022-09-23T14:32:04.549Z,101430.00
2022-09-23T14:34:49.662Z,101422.00
2022-09-23T14:37:47.966Z,101420.00
2022-09-23T14:40:20.719Z,101413.00
2022-09-23T14:42:53.735Z,101414.00
2022-09-23T14:45:28.948Z,101416.00
2022-09-23T14:48:01.392Z,101410.00
2022-09-23T14:50:40.765Z,101407.00
2022-09-23T14:53:40.337Z,101406.00
2022-09-23T14:56:48.083Z,101409.00
2022-09-23T14:59:30.676Z,101406.00
2022-09-23T15:02:01.785Z,101407.00
2022-09-23T15:04:56.851Z,101401.00
2022-09-23T15:07:27.163Z,101397.00
2022-09-23T15:09:56.738Z,101403.00
2022-09-23T15:12:29.118Z,101403.00
2022-09-23T15:15:37.641Z,101406.00
2022-09-23T15:18:27.538Z,101402.00
2022-09-23T15:21:02.022Z,101410.00
2022-09-23T15:23:40.468Z,101413.00
2022-09-23T15:26:15.354Z,101408.00
2022-09-23T15:28:45.246Z,101405.00
2022-09-23T15:31:15.984Z,101407.00
2022-09-23T15:33:48.319Z,101410.00
2022-09-23T15:36:21.947Z,101417.00
2022-09-23T15:38:51.657Z,101416.00
2022-09-23T15:41:21.455Z,101411.00
2022-09-23T15:43:54.011Z,101420.00
2022-09-23T15:46:26.667Z,101417.00
2022-09-23T15:49:01.699Z,101412.00
2022-09-23T15:51:31.064Z,101416.00
2022-09-23T15:54:23.226Z,101412.00
2022-09-23T15:57:00.511Z,101409.00
2022-09-23T15:59:32.125Z,101418.00
2022-09-23T16:02:08.122Z,101425.00
2022-09-23T16:04:49.173Z,101427.00
2022-09-23T16:07:20.029Z,101425.00
2022-09-23T16:09:48.913Z,101425.00
2022-09-23T16:12:17.888Z,101423.00
2022-09-23T16:14:46.624Z,101424.00
2022-09-23T16:17:15.446Z,101421.00
2022-09-23T16:20:23.553Z,101416.00
2022-09-23T16:22:57.939Z,101416.00
2022-09-23T16:25:30.396Z,101415.00
2022-09-23T16:31:02.256Z,101420.00
2022-09-23T16:33:31.003Z,101417.00
2022-09-23T16:36:08.349Z,101418.00
2022-09-23T16:38:37.539Z,101422.00
2022-09-23T16:41:06.962Z,101419.00
2022-09-23T16:43:40.631Z,101410.00
2022-09-23T16:46:12.290Z,101411.00
2022-09-23T16:48:53.589Z,101407.00
2022-09-23T16:51:28.014Z,101409.00
2022-09-23T16:54:36.772Z,101402.00
2022-09-23T16:57:13.256Z,101412.00
2022-09-23T17:00:00.045Z,101410.00
2022-09-23T17:02:47.627Z,101414.00
2022-09-23T17:05:19.576Z,101413.00
2022-09-23T17:07:50.699Z,101411.00
2022-09-23T17:10:21.425Z,101412.00
2022-09-23T17:13:09.756Z,101412.00
2022-09-23T17:15:40.384Z,101410.00
2022-09-23T17:18:10.393Z,101414.00
2022-09-23T17:20:43.004Z,101409.00
2022-09-23T17:23:38.502Z,101407.00
2022-09-23T17:26:09.969Z,101405.00
2022-09-23T17:28:42.080Z,101405.00
2022-09-23T17:31:11.444Z,101404.00
2022-09-23T17:33:42.955Z,101406.00
2022-09-23T17:36:18.494Z,101406.00
2022-09-23T17:38:53.682Z,101404.00
2022-09-23T17:41:23.669Z,101416.00
2022-09-23T17:44:00.765Z,101414.00
2022-09-23T17:46:35.345Z,101414.00
2022-09-23T17:49:05.781Z,101414.00
2022-09-23T17:51:35.048Z,101413.00
2022-09-23T17:54:11.029Z,101415.00
2022-09-23T17:56:44.587Z,101416.00
2022-09-23T17:59:14.277Z,101411.00
2022-09-23T18:01:44.142Z,101415.00
2022-09-23T18:04:13.985Z,101416.00
2022-09-23T18:06:48.375Z,101417.00
2022-09-23T18:09:19.391Z,101409.00
2022-09-23T18:11:49.885Z,101417.00
2022-09-23T18:14:25.014Z,101416.00
2022-09-23T18:16:59.877Z,101407.00
2022-09-23T18:19:33.464Z,101408.00
2022-09-23T18:22:03.086Z,101415.00
2022-09-23T18:24:38.096Z,101416.00
2022-09-23T18:27:10.833Z,101409.00
2022-09-23T18:29:46.937Z,101417.00
2022-09-23T18:32:17.924Z,101411.00
2022-09-23T18:34:50.591Z,101419.00
2022-09-23T18:37:24.315Z,101420.00
2022-09-23T18:39:55.739Z,101413.00
2022-09-23T18:42:29.865Z,101409.00
2022-09-23T18:45:02.326Z,101406.00
2022-09-23T18:47:50.754Z,101417.00
2022-09-23T18:50:39.377Z,101413.00
2022-09-23T18:53:10.800Z,101407.00
2022-09-23T18:55:42.543Z,101407.00
2022-09-23T18:58:14.871Z,101413.00
2022-09-23T19:00:48.140Z,101401.00
2022-09-23T19:03:19.560Z,101405.00
2022-09-23T19:05:48.855Z,101404.00
2022-09-23T19:08:19.036Z,101402.00
2022-09-23T19:10:57.272Z,101401.00
2022-09-23T19:13:27.806Z,101405.00
2022-09-23T19:16:04.154Z,101402.00
2022-09-23T19:18:42.205Z,101401.00
2022-09-23T19:21:14.687Z,101398.00
2022-09-23T19:23:54.416Z,101400.00
2022-09-23T19:26:28.284Z,101397.00
2022-09-23T19:29:02.681Z,101401.00
2022-09-23T19:31:34.941Z,101398.00
2022-09-23T19:34:10.919Z,101403.00
2022-09-23T19:36:42.755Z,101409.00
2022-09-23T19:39:18.090Z,101404.00
2022-09-23T19:41:49.528Z,101408.00
2022-09-23T19:44:20.663Z,101398.00
2022-09-23T19:46:56.003Z,101398.00
2022-09-23T19:49:31.302Z,101398.00
2022-09-23T19:52:01.763Z,101395.00
2022-09-23T19:54:30.807Z,101393.00
2022-09-23T19:57:19.630Z,101400.00
2022-09-23T19:59:57.275Z,101400.00
2022-09-23T20:02:26.692Z,101394.00
2022-09-23T20:04:55.456Z,101397.00
2022-09-23T20:07:24.586Z,101387.00
2022-09-23T20:09:53.600Z,101385.00
2022-09-23T20:12:27.644Z,101388.00
2022-09-23T20:14:56.471Z,101381.00
2022-09-23T20:17:40.293Z,101380.00
2022-09-23T20:20:48.329Z,101375.00
2022-09-23T20:23:20.771Z,101378.00
2022-09-23T20:26:14.886Z,101377.00
2022-09-23T20:28:45.295Z,101381.00
2022-09-23T20:31:15.644Z,101382.00
2022-09-23T20:33:46.270Z,101385.00
2022-09-23T20:36:15.421Z,101381.00
2022-09-23T20:38:44.140Z,101381.00
2022-09-23T20:41:13.744Z,101385.00
2022-09-23T20:43:42.712Z,101376.00
2022-09-23T20:46:15.040Z,101379.00
2022-09-23T20:48:46.389Z,101382.00
2022-09-23T20:51:15.654Z,101382.00
2022-09-23T20:53:45.806Z,101376.00
2022-09-23T20:56:15.007Z,101377.00
2022-09-23T20:58:44.605Z,101377.00
2022-09-23T21:01:15.042Z,101370.00
2022-09-23T21:03:46.551Z,101369.00
2022-09-23T21:06:17.644Z,101368.00
2022-09-23T21:08:47.012Z,101369.00
2022-09-23T21:11:18.049Z,101369.00
2022-09-23T21:13:48.387Z,101360.00
2022-09-23T21:16:22.144Z,101362.00
2022-09-23T21:18:52.086Z,101364.00
2022-09-23T21:21:22.476Z,101357.00
2022-09-23T21:23:53.553Z,101356.00
2022-09-23T21:26:24.771Z,101366.00
2022-09-23T21:28:57.905Z,101364.00
2022-09-23T21:31:32.251Z,101357.00
2022-09-23T21:34:03.484Z,101367.00
2022-09-23T21:36:34.976Z,101358.00
2022-09-23T21:39:05.705Z,101355.00
2022-09-23T21:41:35.209Z,101364.00
2022-09-23T21:44:06.655Z,101357.00
2022-09-23T21:46:38.237Z,101355.00
2022-09-23T21:49:06.998Z,101357.00
2022-09-23T21:51:40.513Z,101352.00
2022-09-23T21:54:14.617Z,101358.00
2022-09-23T21:56:44.526Z,101355.00
2022-09-23T21:59:13.569Z,101351.00
2022-09-23T22:01:45.846Z,101364.00
2022-09-23T22:04:18.731Z,101356.00
2022-09-23T22:06:49.177Z,101355.00
2022-09-23T22:09:20.834Z,101343.00
2022-09-23T22:12:11.276Z,101341.00
2022-09-23T22:14:40.491Z,101340.00
2022-09-23T22:17:12.376Z,101343.00
2022-09-23T22:19:45.838Z,101342.00
2022-09-23T22:22:19.655Z,101340.00
2022-09-23T22:24:50.133Z,101344.00
2022-09-23T22:27:21.277Z,101339.00
2022-09-23T22:30:07.112Z,101336.00
2022-09-23T22:32:43.760Z,101334.00
2022-09-23T22:35:16.652Z,101343.00
2022-09-23T22:37:46.235Z,101335.00
2022-09-23T22:40:16.953Z,101342.00
2022-09-23T22:42:46.705Z,101342.00
2022-09-23T22:45:15.585Z,101331.00
2022-09-23T22:47:46.127Z,101334.00
2022-09-23T22:50:15.504Z,101328.00
2022-09-23T22:52:44.518Z,101328.00
2022-09-23T22:55:14.098Z,101340.00
2022-09-23T22:57:42.784Z,101340.00
2022-09-23T23:00:13.596Z,101328.00
2022-09-23T23:02:44.092Z,101330.00
2022-09-23T23:05:14.613Z,101335.00
2022-09-23T23:07:43.272Z,101341.00
2022-09-23T23:10:11.997Z,101331.00
2022-09-23T23:12:41.872Z,101332.00
2022-09-23T23:15:12.481Z,101334.00
2022-09-23T23:17:43.737Z,101335.00
2022-09-23T23:20:13.835Z,101329.00
2022-09-23T23:22:42.804Z,101330.00
2022-09-23T23:25:11.759Z,101326.00
2022-09-23T23:27:40.430Z,101320.00
2022-09-23T23:30:10.870Z,101324.00
2022-09-23T23:32:39.577Z,101312.00
2022-09-23T23:35:09.354Z,101313.00
2022-09-23T23:37:39.510Z,101307.00
2022-09-23T23:40:09.889Z,101316.00
2022-09-23T23:42:40.748Z,101309.00
2022-09-23T23:45:10.739Z,101311.00
2022-09-23T23:47:40.117Z,101307.00
2022-09-23T23:50:09.882Z,101302.00
2022-09-23T23:52:40.262Z,101304.00
2022-09-23T23:55:09.884Z,101303.00
2022-09-23T23:57:39.722Z,101300.00
